sensor_id;sensor_type;location;lat;lon;timestamp;P1;durP1;ratioP1;P2;durP2;ratioP2
71629;SDS011;59479;51.902;8.212;2022-07-24T00:01:52;5.97;;;2.97;;
71629;SDS011;59479;51.902;8.212;2022-07-24T00:04:17;5.07;;;2.83;;
71629;SDS011;59479;51.902;8.212;2022-07-24T00:06:42;5.30;;;2.70;;
71629;SDS011;59479;51.902;8.212;2022-07-24T00:09:08;4.77;;;3.13;;
71629;SDS011;59479;51.902;8.212;2022-07-24T00:11:34;5.65;;;3.40;;
71629;SDS011;59479;51.902;8.212;2022-07-24T00:13:59;5.13;;;3.10;;
71629;SDS011;59479;51.902;8.212;2022-07-24T00:16:25;6.47;;;3.40;;
71629;SDS011;59479;51.902;8.212;2022-07-24T00:18:50;5.87;;;3.00;;
71629;SDS011;59479;51.902;8.212;2022-07-24T00:21:15;5.63;;;3.23;;
71629;SDS011;59479;51.902;8.212;2022-07-24T00:23:41;5.10;;;3.37;;
71629;SDS011;59479;51.902;8.212;2022-07-24T00:26:08;6.72;;;3.63;;
71629;SDS011;59479;51.902;8.212;2022-07-24T00:28:34;5.82;;;3.40;;
71629;SDS011;59479;51.902;8.212;2022-07-24T00:30:59;5.85;;;2.92;;
71629;SDS011;59479;51.902;8.212;2022-07-24T00:33:24;7.00;;;3.20;;
71629;SDS011;59479;51.902;8.212;2022-07-24T00:35:50;5.53;;;3.60;;
71629;SDS011;59479;51.902;8.212;2022-07-24T00:38:15;5.97;;;3.10;;
71629;SDS011;59479;51.902;8.212;2022-07-24T00:40:41;4.88;;;2.92;;
71629;SDS011;59479;51.902;8.212;2022-07-24T00:43:06;5.25;;;3.33;;
71629;SDS011;59479;51.902;8.212;2022-07-24T00:45:31;6.80;;;3.30;;
71629;SDS011;59479;51.902;8.212;2022-07-24T00:47:57;5.23;;;3.10;;
71629;SDS011;59479;51.902;8.212;2022-07-24T00:50:22;5.27;;;3.30;;
71629;SDS011;59479;51.902;8.212;2022-07-24T00:52:48;5.45;;;3.05;;
71629;SDS011;59479;51.902;8.212;2022-07-24T00:55:14;5.28;;;2.80;;
71629;SDS011;59479;51.902;8.212;2022-07-24T00:57:40;5.25;;;3.35;;
71629;SDS011;59479;51.902;8.212;2022-07-24T01:00:09;6.25;;;3.90;;
71629;SDS011;59479;51.902;8.212;2022-07-24T01:02:35;5.97;;;3.30;;
71629;SDS011;59479;51.902;8.212;2022-07-24T01:05:04;6.07;;;2.93;;
71629;SDS011;59479;51.902;8.212;2022-07-24T01:07:30;8.18;;;3.17;;
71629;SDS011;59479;51.902;8.212;2022-07-24T01:09:55;5.47;;;3.47;;
71629;SDS011;59479;51.902;8.212;2022-07-24T01:12:21;5.80;;;3.40;;
71629;SDS011;59479;51.902;8.212;2022-07-24T01:14:47;6.73;;;3.47;;
71629;SDS011;59479;51.902;8.212;2022-07-24T01:17:12;7.07;;;3.60;;
71629;SDS011;59479;51.902;8.212;2022-07-24T01:19:37;4.73;;;3.20;;
71629;SDS011;59479;51.902;8.212;2022-07-24T01:22:03;5.88;;;3.38;;
71629;SDS011;59479;51.902;8.212;2022-07-24T01:24:29;6.47;;;3.50;;
71629;SDS011;59479;51.902;8.212;2022-07-24T01:26:54;6.20;;;3.53;;
71629;SDS011;59479;51.902;8.212;2022-07-24T01:29:20;6.63;;;3.47;;
71629;SDS011;59479;51.902;8.212;2022-07-24T01:31:45;6.27;;;3.63;;
71629;SDS011;59479;51.902;8.212;2022-07-24T01:34:11;5.63;;;3.20;;
71629;SDS011;59479;51.902;8.212;2022-07-24T01:36:37;5.57;;;3.33;;
71629;SDS011;59479;51.902;8.212;2022-07-24T01:39:02;6.10;;;3.30;;
71629;SDS011;59479;51.902;8.212;2022-07-24T01:41:28;6.43;;;4.18;;
71629;SDS011;59479;51.902;8.212;2022-07-24T01:43:53;5.63;;;3.93;;
71629;SDS011;59479;51.902;8.212;2022-07-24T01:46:18;5.90;;;3.80;;
71629;SDS011;59479;51.902;8.212;2022-07-24T01:48:44;6.00;;;3.70;;
71629;SDS011;59479;51.902;8.212;2022-07-24T01:51:09;5.53;;;3.23;;
71629;SDS011;59479;51.902;8.212;2022-07-24T01:53:35;7.78;;;4.15;;
71629;SDS011;59479;51.902;8.212;2022-07-24T01:56:00;6.87;;;3.80;;
71629;SDS011;59479;51.902;8.212;2022-07-24T01:58:26;6.32;;;3.58;;
71629;SDS011;59479;51.902;8.212;2022-07-24T02:00:52;7.50;;;4.27;;
71629;SDS011;59479;51.902;8.212;2022-07-24T02:03:17;6.20;;;3.87;;
71629;SDS011;59479;51.902;8.212;2022-07-24T02:05:43;6.55;;;3.97;;
71629;SDS011;59479;51.902;8.212;2022-07-24T02:08:09;6.50;;;3.83;;
71629;SDS011;59479;51.902;8.212;2022-07-24T02:10:34;6.97;;;4.50;;
71629;SDS011;59479;51.902;8.212;2022-07-24T02:13:00;6.53;;;3.87;;
71629;SDS011;59479;51.902;8.212;2022-07-24T02:15:25;7.53;;;3.95;;
71629;SDS011;59479;51.902;8.212;2022-07-24T02:17:52;5.70;;;3.83;;
71629;SDS011;59479;51.902;8.212;2022-07-24T02:20:20;6.72;;;3.85;;
71629;SDS011;59479;51.902;8.212;2022-07-24T02:22:45;7.00;;;4.25;;
71629;SDS011;59479;51.902;8.212;2022-07-24T02:25:11;6.50;;;3.70;;
71629;SDS011;59479;51.902;8.212;2022-07-24T02:27:37;9.30;;;4.10;;
71629;SDS011;59479;51.902;8.212;2022-07-24T02:30:06;10.60;;;4.50;;
71629;SDS011;59479;51.902;8.212;2022-07-24T02:32:37;7.47;;;3.92;;
71629;SDS011;59479;51.902;8.212;2022-07-24T02:35:02;6.63;;;3.83;;
71629;SDS011;59479;51.902;8.212;2022-07-24T02:37:28;7.47;;;4.13;;
71629;SDS011;59479;51.902;8.212;2022-07-24T02:39:53;6.80;;;3.95;;
71629;SDS011;59479;51.902;8.212;2022-07-24T02:42:18;6.47;;;4.00;;
71629;SDS011;59479;51.902;8.212;2022-07-24T02:44:44;6.30;;;3.87;;
71629;SDS011;59479;51.902;8.212;2022-07-24T02:47:09;7.50;;;4.27;;
71629;SDS011;59479;51.902;8.212;2022-07-24T02:49:34;6.57;;;4.37;;
71629;SDS011;59479;51.902;8.212;2022-07-24T02:52:00;5.68;;;3.33;;
71629;SDS011;59479;51.902;8.212;2022-07-24T02:54:26;7.78;;;4.22;;
71629;SDS011;59479;51.902;8.212;2022-07-24T02:56:52;7.33;;;4.33;;
71629;SDS011;59479;51.902;8.212;2022-07-24T02:59:17;7.13;;;4.30;;
71629;SDS011;59479;51.902;8.212;2022-07-24T03:01:42;12.07;;;3.83;;
71629;SDS011;59479;51.902;8.212;2022-07-24T03:04:08;8.53;;;4.40;;
71629;SDS011;59479;51.902;8.212;2022-07-24T03:06:33;8.23;;;4.40;;
71629;SDS011;59479;51.902;8.212;2022-07-24T03:09:00;6.35;;;4.20;;
71629;SDS011;59479;51.902;8.212;2022-07-24T03:11:25;10.20;;;4.40;;
71629;SDS011;59479;51.902;8.212;2022-07-24T03:13:51;6.40;;;4.23;;
71629;SDS011;59479;51.902;8.212;2022-07-24T03:16:16;9.73;;;4.70;;
71629;SDS011;59479;51.902;8.212;2022-07-24T03:18:42;7.13;;;4.43;;
71629;SDS011;59479;51.902;8.212;2022-07-24T03:21:12;7.43;;;4.40;;
71629;SDS011;59479;51.902;8.212;2022-07-24T03:23:37;8.60;;;4.57;;
71629;SDS011;59479;51.902;8.212;2022-07-24T03:26:03;7.47;;;4.63;;
71629;SDS011;59479;51.902;8.212;2022-07-24T03:28:29;6.83;;;4.47;;
71629;SDS011;59479;51.902;8.212;2022-07-24T03:30:54;7.03;;;4.40;;
71629;SDS011;59479;51.902;8.212;2022-07-24T03:33:19;6.67;;;4.40;;
71629;SDS011;59479;51.902;8.212;2022-07-24T03:35:45;7.27;;;4.40;;
71629;SDS011;59479;51.902;8.212;2022-07-24T03:38:10;7.33;;;4.40;;
71629;SDS011;59479;51.902;8.212;2022-07-24T03:40:35;7.47;;;4.33;;
71629;SDS011;59479;51.902;8.212;2022-07-24T03:43:01;6.90;;;4.30;;
71629;SDS011;59479;51.902;8.212;2022-07-24T03:45:27;7.82;;;4.30;;
71629;SDS011;59479;51.902;8.212;2022-07-24T03:47:52;7.57;;;4.30;;
71629;SDS011;59479;51.902;8.212;2022-07-24T03:50:17;7.23;;;4.20;;
71629;SDS011;59479;51.902;8.212;2022-07-24T03:52:43;8.57;;;4.27;;
71629;SDS011;59479;51.902;8.212;2022-07-24T03:55:08;6.87;;;4.57;;
71629;SDS011;59479;51.902;8.212;2022-07-24T03:57:33;11.00;;;3.80;;
71629;SDS011;59479;51.902;8.212;2022-07-24T03:59:59;9.83;;;4.40;;
71629;SDS011;59479;51.902;8.212;2022-07-24T04:02:24;6.73;;;4.37;;
71629;SDS011;59479;51.902;8.212;2022-07-24T04:04:49;9.40;;;4.00;;
71629;SDS011;59479;51.902;8.212;2022-07-24T04:07:15;7.00;;;3.97;;
71629;SDS011;59479;51.902;8.212;2022-07-24T04:09:40;6.70;;;3.73;;
71629;SDS011;59479;51.902;8.212;2022-07-24T04:12:06;7.53;;;4.17;;
71629;SDS011;59479;51.902;8.212;2022-07-24T04:14:31;6.50;;;3.92;;
71629;SDS011;59479;51.902;8.212;2022-07-24T04:16:57;7.33;;;4.10;;
71629;SDS011;59479;51.902;8.212;2022-07-24T04:19:22;7.45;;;3.55;;
71629;SDS011;59479;51.902;8.212;2022-07-24T04:21:49;8.33;;;4.20;;
71629;SDS011;59479;51.902;8.212;2022-07-24T04:24:14;7.40;;;3.72;;
71629;SDS011;59479;51.902;8.212;2022-07-24T04:26:39;5.63;;;3.80;;
71629;SDS011;59479;51.902;8.212;2022-07-24T04:29:05;7.77;;;3.90;;
71629;SDS011;59479;51.902;8.212;2022-07-24T04:31:30;7.60;;;4.10;;
71629;SDS011;59479;51.902;8.212;2022-07-24T04:33:55;7.90;;;4.10;;
71629;SDS011;59479;51.902;8.212;2022-07-24T04:36:21;8.25;;;4.55;;
71629;SDS011;59479;51.902;8.212;2022-07-24T04:38:47;8.03;;;4.43;;
71629;SDS011;59479;51.902;8.212;2022-07-24T04:41:12;7.23;;;4.33;;
71629;SDS011;59479;51.902;8.212;2022-07-24T04:43:38;7.05;;;3.80;;
71629;SDS011;59479;51.902;8.212;2022-07-24T04:46:04;7.87;;;3.67;;
71629;SDS011;59479;51.902;8.212;2022-07-24T04:48:29;8.13;;;3.53;;
71629;SDS011;59479;51.902;8.212;2022-07-24T04:50:54;6.90;;;4.10;;
71629;SDS011;59479;51.902;8.212;2022-07-24T04:53:20;8.43;;;3.70;;
71629;SDS011;59479;51.902;8.212;2022-07-24T04:55:45;7.18;;;4.35;;
71629;SDS011;59479;51.902;8.212;2022-07-24T04:58:10;6.27;;;4.03;;
71629;SDS011;59479;51.902;8.212;2022-07-24T05:00:36;8.60;;;3.93;;
71629;SDS011;59479;51.902;8.212;2022-07-24T05:03:01;7.40;;;4.20;;
71629;SDS011;59479;51.902;8.212;2022-07-24T05:05:27;8.27;;;4.18;;
71629;SDS011;59479;51.902;8.212;2022-07-24T05:07:52;7.10;;;3.95;;
71629;SDS011;59479;51.902;8.212;2022-07-24T05:10:18;7.63;;;4.20;;
71629;SDS011;59479;51.902;8.212;2022-07-24T05:12:43;6.93;;;4.27;;
71629;SDS011;59479;51.902;8.212;2022-07-24T05:15:09;8.50;;;4.43;;
71629;SDS011;59479;51.902;8.212;2022-07-24T05:17:35;7.60;;;4.60;;
71629;SDS011;59479;51.902;8.212;2022-07-24T05:20:01;8.15;;;4.47;;
71629;SDS011;59479;51.902;8.212;2022-07-24T05:22:27;6.88;;;3.95;;
71629;SDS011;59479;51.902;8.212;2022-07-24T05:24:52;6.68;;;3.97;;
71629;SDS011;59479;51.902;8.212;2022-07-24T05:27:18;5.60;;;3.70;;
71629;SDS011;59479;51.902;8.212;2022-07-24T05:29:43;6.40;;;4.03;;
71629;SDS011;59479;51.902;8.212;2022-07-24T05:32:08;6.80;;;3.97;;
71629;SDS011;59479;51.902;8.212;2022-07-24T05:34:34;8.70;;;3.90;;
71629;SDS011;59479;51.902;8.212;2022-07-24T05:36:59;7.67;;;4.63;;
71629;SDS011;59479;51.902;8.212;2022-07-24T05:39:24;7.20;;;4.10;;
71629;SDS011;59479;51.902;8.212;2022-07-24T05:41:50;8.03;;;4.23;;
71629;SDS011;59479;51.902;8.212;2022-07-24T05:44:15;13.18;;;5.13;;
71629;SDS011;59479;51.902;8.212;2022-07-24T05:46:41;7.67;;;4.20;;
71629;SDS011;59479;51.902;8.212;2022-07-24T05:49:06;8.47;;;4.50;;
71629;SDS011;59479;51.902;8.212;2022-07-24T05:51:31;8.07;;;4.03;;
71629;SDS011;59479;51.902;8.212;2022-07-24T05:53:57;7.90;;;4.20;;
71629;SDS011;59479;51.902;8.212;2022-07-24T05:56:22;7.73;;;3.67;;
71629;SDS011;59479;51.902;8.212;2022-07-24T05:58:47;7.63;;;4.03;;
71629;SDS011;59479;51.902;8.212;2022-07-24T06:01:12;6.00;;;3.80;;
71629;SDS011;59479;51.902;8.212;2022-07-24T06:03:38;7.97;;;4.37;;
71629;SDS011;59479;51.902;8.212;2022-07-24T06:06:04;7.30;;;4.33;;
71629;SDS011;59479;51.902;8.212;2022-07-24T06:08:30;5.68;;;3.70;;
71629;SDS011;59479;51.902;8.212;2022-07-24T06:10:55;7.90;;;3.63;;
71629;SDS011;59479;51.902;8.212;2022-07-24T06:13:21;6.60;;;4.10;;
71629;SDS011;59479;51.902;8.212;2022-07-24T06:15:46;7.80;;;3.90;;
71629;SDS011;59479;51.902;8.212;2022-07-24T06:18:11;7.30;;;3.93;;
71629;SDS011;59479;51.902;8.212;2022-07-24T06:20:36;6.20;;;3.43;;
71629;SDS011;59479;51.902;8.212;2022-07-24T06:23:02;5.47;;;3.50;;
71629;SDS011;59479;51.902;8.212;2022-07-24T06:25:27;5.88;;;3.55;;
71629;SDS011;59479;51.902;8.212;2022-07-24T06:27:52;6.67;;;3.40;;
71629;SDS011;59479;51.902;8.212;2022-07-24T06:30:23;6.18;;;3.83;;
71629;SDS011;59479;51.902;8.212;2022-07-24T06:32:51;6.60;;;3.63;;
71629;SDS011;59479;51.902;8.212;2022-07-24T06:35:18;7.95;;;3.83;;
71629;SDS011;59479;51.902;8.212;2022-07-24T06:37:43;8.67;;;3.70;;
71629;SDS011;59479;51.902;8.212;2022-07-24T06:40:09;5.60;;;3.43;;
71629;SDS011;59479;51.902;8.212;2022-07-24T06:42:35;6.60;;;4.13;;
71629;SDS011;59479;51.902;8.212;2022-07-24T06:45:00;6.10;;;3.50;;
71629;SDS011;59479;51.902;8.212;2022-07-24T06:47:27;9.02;;;3.67;;
71629;SDS011;59479;51.902;8.212;2022-07-24T06:49:55;7.07;;;3.80;;
71629;SDS011;59479;51.902;8.212;2022-07-24T06:52:20;6.28;;;3.63;;
71629;SDS011;59479;51.902;8.212;2022-07-24T06:54:47;6.43;;;3.70;;
71629;SDS011;59479;51.902;8.212;2022-07-24T06:57:12;5.27;;;3.37;;
71629;SDS011;59479;51.902;8.212;2022-07-24T06:59:38;6.15;;;3.50;;
71629;SDS011;59479;51.902;8.212;2022-07-24T07:02:04;6.60;;;3.22;;
71629;SDS011;59479;51.902;8.212;2022-07-24T07:04:29;7.10;;;4.00;;
71629;SDS011;59479;51.902;8.212;2022-07-24T07:06:55;5.90;;;3.53;;
71629;SDS011;59479;51.902;8.212;2022-07-24T07:09:20;7.57;;;3.77;;
71629;SDS011;59479;51.902;8.212;2022-07-24T07:11:45;5.53;;;3.30;;
71629;SDS011;59479;51.902;8.212;2022-07-24T07:14:11;5.40;;;3.23;;
71629;SDS011;59479;51.902;8.212;2022-07-24T07:16:36;7.20;;;3.67;;
71629;SDS011;59479;51.902;8.212;2022-07-24T07:19:01;8.57;;;3.70;;
71629;SDS011;59479;51.902;8.212;2022-07-24T07:21:27;6.10;;;3.55;;
71629;SDS011;59479;51.902;8.212;2022-07-24T07:23:52;5.70;;;3.57;;
71629;SDS011;59479;51.902;8.212;2022-07-24T07:26:18;5.80;;;3.47;;
71629;SDS011;59479;51.902;8.212;2022-07-24T07:28:43;6.05;;;3.50;;
71629;SDS011;59479;51.902;8.212;2022-07-24T07:31:09;7.60;;;3.90;;
71629;SDS011;59479;51.902;8.212;2022-07-24T07:33:34;5.57;;;3.33;;
71629;SDS011;59479;51.902;8.212;2022-07-24T07:35:59;9.07;;;3.30;;
71629;SDS011;59479;51.902;8.212;2022-07-24T07:38:25;7.63;;;3.87;;
71629;SDS011;59479;51.902;8.212;2022-07-24T07:40:50;6.47;;;3.80;;
71629;SDS011;59479;51.902;8.212;2022-07-24T07:43:15;6.47;;;3.50;;
71629;SDS011;59479;51.902;8.212;2022-07-24T07:45:41;6.87;;;3.70;;
71629;SDS011;59479;51.902;8.212;2022-07-24T07:48:06;5.47;;;3.25;;
71629;SDS011;59479;51.902;8.212;2022-07-24T07:50:31;8.27;;;3.50;;
71629;SDS011;59479;51.902;8.212;2022-07-24T07:52:57;7.03;;;4.43;;
71629;SDS011;59479;51.902;8.212;2022-07-24T07:55:22;6.60;;;3.43;;
71629;SDS011;59479;51.902;8.212;2022-07-24T07:57:48;7.10;;;3.93;;
71629;SDS011;59479;51.902;8.212;2022-07-24T08:00:14;6.25;;;4.03;;
71629;SDS011;59479;51.902;8.212;2022-07-24T08:02:40;6.43;;;3.80;;
71629;SDS011;59479;51.902;8.212;2022-07-24T08:05:05;7.17;;;3.57;;
71629;SDS011;59479;51.902;8.212;2022-07-24T08:07:31;6.38;;;3.60;;
71629;SDS011;59479;51.902;8.212;2022-07-24T08:09:57;5.60;;;3.63;;
71629;SDS011;59479;51.902;8.212;2022-07-24T08:12:22;7.40;;;3.83;;
71629;SDS011;59479;51.902;8.212;2022-07-24T08:14:47;8.80;;;4.27;;
71629;SDS011;59479;51.902;8.212;2022-07-24T08:17:13;8.10;;;4.30;;
71629;SDS011;59479;51.902;8.212;2022-07-24T08:19:38;6.60;;;4.27;;
71629;SDS011;59479;51.902;8.212;2022-07-24T08:22:04;8.30;;;4.20;;
71629;SDS011;59479;51.902;8.212;2022-07-24T08:24:32;6.28;;;3.60;;
71629;SDS011;59479;51.902;8.212;2022-07-24T08:26:58;6.67;;;3.80;;
71629;SDS011;59479;51.902;8.212;2022-07-24T08:29:25;6.80;;;3.75;;
71629;SDS011;59479;51.902;8.212;2022-07-24T08:31:51;7.70;;;3.85;;
71629;SDS011;59479;51.902;8.212;2022-07-24T08:34:16;6.32;;;4.13;;
71629;SDS011;59479;51.902;8.212;2022-07-24T08:36:42;6.33;;;3.60;;
71629;SDS011;59479;51.902;8.212;2022-07-24T08:39:10;6.85;;;3.90;;
71629;SDS011;59479;51.902;8.212;2022-07-24T08:41:40;6.75;;;4.00;;
71629;SDS011;59479;51.902;8.212;2022-07-24T08:44:05;6.45;;;3.72;;
71629;SDS011;59479;51.902;8.212;2022-07-24T08:46:31;7.03;;;3.87;;
71629;SDS011;59479;51.902;8.212;2022-07-24T08:48:57;7.25;;;4.20;;
71629;SDS011;59479;51.902;8.212;2022-07-24T08:51:23;7.63;;;4.17;;
71629;SDS011;59479;51.902;8.212;2022-07-24T08:54:01;9.65;;;4.35;;
71629;SDS011;59479;51.902;8.212;2022-07-24T08:56:27;8.60;;;4.00;;
71629;SDS011;59479;51.902;8.212;2022-07-24T08:58:53;6.20;;;3.38;;
71629;SDS011;59479;51.902;8.212;2022-07-24T09:01:18;5.73;;;3.43;;
71629;SDS011;59479;51.902;8.212;2022-07-24T09:03:44;9.33;;;4.17;;
71629;SDS011;59479;51.902;8.212;2022-07-24T09:06:11;6.10;;;3.70;;
71629;SDS011;59479;51.902;8.212;2022-07-24T09:08:39;6.37;;;3.90;;
71629;SDS011;59479;51.902;8.212;2022-07-24T09:11:21;7.18;;;4.00;;
71629;SDS011;59479;51.902;8.212;2022-07-24T09:13:47;6.90;;;4.00;;
71629;SDS011;59479;51.902;8.212;2022-07-24T09:16:35;6.43;;;3.70;;
71629;SDS011;59479;51.902;8.212;2022-07-24T09:19:05;6.53;;;4.03;;
71629;SDS011;59479;51.902;8.212;2022-07-24T09:21:34;10.07;;;4.65;;
71629;SDS011;59479;51.902;8.212;2022-07-24T09:24:22;7.65;;;4.00;;
71629;SDS011;59479;51.902;8.212;2022-07-24T09:26:48;8.23;;;4.40;;
71629;SDS011;59479;51.902;8.212;2022-07-24T09:29:18;7.22;;;4.18;;
71629;SDS011;59479;51.902;8.212;2022-07-24T09:31:51;7.78;;;4.40;;
71629;SDS011;59479;51.902;8.212;2022-07-24T09:34:24;6.07;;;4.18;;
71629;SDS011;59479;51.902;8.212;2022-07-24T09:36:54;7.75;;;4.32;;
71629;SDS011;59479;51.902;8.212;2022-07-24T09:39:29;6.45;;;4.03;;
71629;SDS011;59479;51.902;8.212;2022-07-24T09:42:00;6.88;;;4.25;;
71629;SDS011;59479;51.902;8.212;2022-07-24T09:44:26;8.05;;;4.50;;
71629;SDS011;59479;51.902;8.212;2022-07-24T09:47:15;8.02;;;4.72;;
71629;SDS011;59479;51.902;8.212;2022-07-24T09:49:41;8.65;;;4.47;;
71629;SDS011;59479;51.902;8.212;2022-07-24T09:54:39;6.95;;;4.28;;
71629;SDS011;59479;51.902;8.212;2022-07-24T10:02:16;6.75;;;4.78;;
71629;SDS011;59479;51.902;8.212;2022-07-24T10:04:44;7.27;;;4.77;;
71629;SDS011;59479;51.902;8.212;2022-07-24T10:07:12;7.00;;;4.30;;
71629;SDS011;59479;51.902;8.212;2022-07-24T10:09:41;7.68;;;5.18;;
71629;SDS011;59479;51.902;8.212;2022-07-24T10:12:13;7.60;;;4.70;;
71629;SDS011;59479;51.902;8.212;2022-07-24T10:14:41;7.20;;;4.80;;
71629;SDS011;59479;51.902;8.212;2022-07-24T10:17:08;7.37;;;4.93;;
71629;SDS011;59479;51.902;8.212;2022-07-24T10:19:39;7.03;;;5.13;;
71629;SDS011;59479;51.902;8.212;2022-07-24T10:22:17;7.80;;;5.10;;
71629;SDS011;59479;51.902;8.212;2022-07-24T10:30:00;7.20;;;4.73;;
71629;SDS011;59479;51.902;8.212;2022-07-24T10:32:29;8.50;;;4.80;;
71629;SDS011;59479;51.902;8.212;2022-07-24T10:34:58;9.10;;;5.03;;
71629;SDS011;59479;51.902;8.212;2022-07-24T10:37:43;8.57;;;5.13;;
71629;SDS011;59479;51.902;8.212;2022-07-24T10:43:10;7.43;;;4.83;;
71629;SDS011;59479;51.902;8.212;2022-07-24T10:48:36;7.47;;;5.00;;
71629;SDS011;59479;51.902;8.212;2022-07-24T10:51:08;7.10;;;5.03;;
71629;SDS011;59479;51.902;8.212;2022-07-24T11:01:35;6.22;;;4.60;;
71629;SDS011;59479;51.902;8.212;2022-07-24T11:06:47;6.82;;;5.32;;
71629;SDS011;59479;51.902;8.212;2022-07-24T11:09:14;8.77;;;4.73;;
71629;SDS011;59479;51.902;8.212;2022-07-24T11:12:02;7.65;;;4.90;;
71629;SDS011;59479;51.902;8.212;2022-07-24T11:14:47;9.30;;;4.95;;
71629;SDS011;59479;51.902;8.212;2022-07-24T11:20:10;8.73;;;5.07;;
71629;SDS011;59479;51.902;8.212;2022-07-24T11:25:19;6.78;;;4.80;;
71629;SDS011;59479;51.902;8.212;2022-07-24T11:27:47;7.65;;;4.38;;
71629;SDS011;59479;51.902;8.212;2022-07-24T11:30:15;6.72;;;4.20;;
71629;SDS011;59479;51.902;8.212;2022-07-24T11:32:44;6.60;;;4.75;;
71629;SDS011;59479;51.902;8.212;2022-07-24T11:35:10;7.37;;;4.67;;
71629;SDS011;59479;51.902;8.212;2022-07-24T11:37:36;6.57;;;4.80;;
71629;SDS011;59479;51.902;8.212;2022-07-24T11:40:05;8.43;;;4.83;;
71629;SDS011;59479;51.902;8.212;2022-07-24T11:42:38;6.97;;;4.68;;
71629;SDS011;59479;51.902;8.212;2022-07-24T11:45:04;7.20;;;4.83;;
71629;SDS011;59479;51.902;8.212;2022-07-24T11:47:32;6.85;;;4.57;;
71629;SDS011;59479;51.902;8.212;2022-07-24T11:50:01;7.93;;;4.57;;
71629;SDS011;59479;51.902;8.212;2022-07-24T11:55:01;7.80;;;4.50;;
71629;SDS011;59479;51.902;8.212;2022-07-24T11:57:30;8.93;;;4.55;;
71629;SDS011;59479;51.902;8.212;2022-07-24T12:00:03;6.70;;;4.20;;
71629;SDS011;59479;51.902;8.212;2022-07-24T12:02:32;7.50;;;3.88;;
71629;SDS011;59479;51.902;8.212;2022-07-24T12:04:57;7.30;;;4.53;;
71629;SDS011;59479;51.902;8.212;2022-07-24T12:07:26;7.23;;;4.00;;
71629;SDS011;59479;51.902;8.212;2022-07-24T12:09:58;6.13;;;4.00;;
71629;SDS011;59479;51.902;8.212;2022-07-24T12:17:33;9.60;;;4.80;;
71629;SDS011;59479;51.902;8.212;2022-07-24T12:20:20;6.83;;;5.10;;
71629;SDS011;59479;51.902;8.212;2022-07-24T12:22:47;7.10;;;4.97;;
71629;SDS011;59479;51.902;8.212;2022-07-24T12:25:12;9.18;;;7.82;;
71629;SDS011;59479;51.902;8.212;2022-07-24T12:27:40;7.10;;;5.00;;
71629;SDS011;59479;51.902;8.212;2022-07-24T12:30:25;9.88;;;7.40;;
71629;SDS011;59479;51.902;8.212;2022-07-24T12:35:30;12.52;;;9.60;;
71629;SDS011;59479;51.902;8.212;2022-07-24T12:37:56;22.05;;;17.92;;
71629;SDS011;59479;51.902;8.212;2022-07-24T12:40:28;14.30;;;10.17;;
71629;SDS011;59479;51.902;8.212;2022-07-24T12:43:08;13.10;;;10.00;;
71629;SDS011;59479;51.902;8.212;2022-07-24T12:45:36;11.18;;;8.25;;
71629;SDS011;59479;51.902;8.212;2022-07-24T12:50:31;12.60;;;9.85;;
71629;SDS011;59479;51.902;8.212;2022-07-24T12:53:07;8.90;;;6.33;;
71629;SDS011;59479;51.902;8.212;2022-07-24T12:55:33;7.20;;;4.95;;
71629;SDS011;59479;51.902;8.212;2022-07-24T12:58:00;5.63;;;3.88;;
71629;SDS011;59479;51.902;8.212;2022-07-24T13:00:28;7.68;;;4.68;;
71629;SDS011;59479;51.902;8.212;2022-07-24T13:02:54;8.00;;;4.20;;
71629;SDS011;59479;51.902;8.212;2022-07-24T13:05:38;5.65;;;4.30;;
71629;SDS011;59479;51.902;8.212;2022-07-24T13:08:04;6.05;;;4.85;;
71629;SDS011;59479;51.902;8.212;2022-07-24T13:10:30;7.80;;;4.50;;
71629;SDS011;59479;51.902;8.212;2022-07-24T13:12:55;6.70;;;4.30;;
71629;SDS011;59479;51.902;8.212;2022-07-24T13:15:20;6.27;;;3.87;;
71629;SDS011;59479;51.902;8.212;2022-07-24T13:17:46;5.83;;;3.70;;
71629;SDS011;59479;51.902;8.212;2022-07-24T13:20:11;6.78;;;4.30;;
71629;SDS011;59479;51.902;8.212;2022-07-24T13:22:37;7.07;;;4.60;;
71629;SDS011;59479;51.902;8.212;2022-07-24T13:25:02;6.73;;;4.10;;
71629;SDS011;59479;51.902;8.212;2022-07-24T13:27:28;6.33;;;4.13;;
71629;SDS011;59479;51.902;8.212;2022-07-24T13:29:54;6.60;;;4.28;;
71629;SDS011;59479;51.902;8.212;2022-07-24T13:32:19;5.97;;;4.23;;
71629;SDS011;59479;51.902;8.212;2022-07-24T13:34:45;6.60;;;3.87;;
71629;SDS011;59479;51.902;8.212;2022-07-24T13:37:10;6.72;;;3.78;;
71629;SDS011;59479;51.902;8.212;2022-07-24T13:39:35;6.80;;;3.63;;
71629;SDS011;59479;51.902;8.212;2022-07-24T13:42:04;6.10;;;4.10;;
71629;SDS011;59479;51.902;8.212;2022-07-24T13:44:30;6.90;;;4.13;;
71629;SDS011;59479;51.902;8.212;2022-07-24T13:46:56;7.67;;;4.27;;
71629;SDS011;59479;51.902;8.212;2022-07-24T13:49:21;5.40;;;3.97;;
71629;SDS011;59479;51.902;8.212;2022-07-24T13:51:46;5.87;;;3.90;;
71629;SDS011;59479;51.902;8.212;2022-07-24T13:54:12;6.78;;;3.88;;
71629;SDS011;59479;51.902;8.212;2022-07-24T13:56:38;7.20;;;4.17;;
71629;SDS011;59479;51.902;8.212;2022-07-24T13:59:04;5.75;;;4.30;;
71629;SDS011;59479;51.902;8.212;2022-07-24T14:01:29;5.73;;;3.83;;
71629;SDS011;59479;51.902;8.212;2022-07-24T14:03:54;7.00;;;4.10;;
71629;SDS011;59479;51.902;8.212;2022-07-24T14:06:20;5.20;;;4.10;;
71629;SDS011;59479;51.902;8.212;2022-07-24T14:08:45;7.43;;;4.20;;
71629;SDS011;59479;51.902;8.212;2022-07-24T14:11:11;5.53;;;3.80;;
71629;SDS011;59479;51.902;8.212;2022-07-24T14:13:36;7.80;;;4.40;;
71629;SDS011;59479;51.902;8.212;2022-07-24T14:16:02;8.13;;;4.30;;
71629;SDS011;59479;51.902;8.212;2022-07-24T14:18:31;6.57;;;4.40;;
71629;SDS011;59479;51.902;8.212;2022-07-24T14:20:56;6.28;;;4.13;;
71629;SDS011;59479;51.902;8.212;2022-07-24T14:23:22;6.47;;;3.97;;
71629;SDS011;59479;51.902;8.212;2022-07-24T14:25:47;7.47;;;4.30;;
71629;SDS011;59479;51.902;8.212;2022-07-24T14:28:14;6.80;;;4.80;;
71629;SDS011;59479;51.902;8.212;2022-07-24T14:30:42;7.05;;;4.25;;
71629;SDS011;59479;51.902;8.212;2022-07-24T14:33:10;6.30;;;4.57;;
71629;SDS011;59479;51.902;8.212;2022-07-24T14:35:36;5.65;;;3.85;;
71629;SDS011;59479;51.902;8.212;2022-07-24T14:38:01;6.17;;;4.13;;
71629;SDS011;59479;51.902;8.212;2022-07-24T14:40:27;6.13;;;4.10;;
71629;SDS011;59479;51.902;8.212;2022-07-24T14:42:52;6.07;;;4.45;;
71629;SDS011;59479;51.902;8.212;2022-07-24T14:45:18;5.37;;;4.10;;
71629;SDS011;59479;51.902;8.212;2022-07-24T14:47:44;7.73;;;4.17;;
71629;SDS011;59479;51.902;8.212;2022-07-24T14:50:09;6.40;;;4.25;;
71629;SDS011;59479;51.902;8.212;2022-07-24T14:52:35;7.30;;;4.40;;
71629;SDS011;59479;51.902;8.212;2022-07-24T14:55:01;6.45;;;4.15;;
71629;SDS011;59479;51.902;8.212;2022-07-24T14:57:27;5.55;;;3.85;;
71629;SDS011;59479;51.902;8.212;2022-07-24T14:59:53;6.67;;;4.10;;
71629;SDS011;59479;51.902;8.212;2022-07-24T15:02:18;6.13;;;3.90;;
71629;SDS011;59479;51.902;8.212;2022-07-24T15:04:43;5.90;;;4.37;;
71629;SDS011;59479;51.902;8.212;2022-07-24T15:07:09;7.07;;;3.97;;
71629;SDS011;59479;51.902;8.212;2022-07-24T15:09:34;5.53;;;4.20;;
71629;SDS011;59479;51.902;8.212;2022-07-24T15:12:00;6.38;;;3.90;;
71629;SDS011;59479;51.902;8.212;2022-07-24T15:14:25;6.13;;;3.90;;
71629;SDS011;59479;51.902;8.212;2022-07-24T15:16:50;5.70;;;3.97;;
71629;SDS011;59479;51.902;8.212;2022-07-24T15:19:16;6.78;;;4.82;;
71629;SDS011;59479;51.902;8.212;2022-07-24T15:21:41;6.70;;;4.20;;
71629;SDS011;59479;51.902;8.212;2022-07-24T15:24:07;7.50;;;4.13;;
71629;SDS011;59479;51.902;8.212;2022-07-24T15:26:33;5.75;;;4.15;;
71629;SDS011;59479;51.902;8.212;2022-07-24T15:28:59;6.27;;;4.13;;
71629;SDS011;59479;51.902;8.212;2022-07-24T15:31:24;5.97;;;3.70;;
71629;SDS011;59479;51.902;8.212;2022-07-24T15:33:49;6.73;;;3.90;;